sensor_id;sensor_type;location;lat;lon;timestamp;temperature;humidity
73777;DHT22;62088;50.240;2.696;2024-01-15T00:01:00;1.50;86.40
73777;DHT22;62088;50.240;2.696;2024-01-15T00:03:27;1.50;86.40
73777;DHT22;62088;50.240;2.696;2024-01-15T00:05:54;1.50;86.40
73777;DHT22;62088;50.240;2.696;2024-01-15T00:08:21;1.50;86.40
73777;DHT22;62088;50.240;2.696;2024-01-15T00:10:49;1.50;86.40
73777;DHT22;62088;50.240;2.696;2024-01-15T00:13:16;1.50;86.40
73777;DHT22;62088;50.240;2.696;2024-01-15T00:15:43;1.50;86.40
73777;DHT22;62088;50.240;2.696;2024-01-15T00:18:10;1.50;86.40
73777;DHT22;62088;50.240;2.696;2024-01-15T00:20:38;1.50;86.40
73777;DHT22;62088;50.240;2.696;2024-01-15T00:23:05;1.50;86.40
73777;DHT22;62088;50.240;2.696;2024-01-15T00:25:32;1.50;86.50
73777;DHT22;62088;50.240;2.696;2024-01-15T00:27:59;1.50;86.50
73777;DHT22;62088;50.240;2.696;2024-01-15T00:30:26;1.50;86.50
73777;DHT22;62088;50.240;2.696;2024-01-15T00:32:53;1.50;86.50
73777;DHT22;62088;50.240;2.696;2024-01-15T00:35:21;1.50;86.50
73777;DHT22;62088;50.240;2.696;2024-01-15T00:37:48;1.50;86.50
73777;DHT22;62088;50.240;2.696;2024-01-15T00:40:15;1.50;86.50
73777;DHT22;62088;50.240;2.696;2024-01-15T00:42:42;1.50;86.50
73777;DHT22;62088;50.240;2.696;2024-01-15T00:45:10;1.50;86.50
73777;DHT22;62088;50.240;2.696;2024-01-15T00:47:37;1.50;86.50
73777;DHT22;62088;50.240;2.696;2024-01-15T00:50:05;1.50;86.50
73777;DHT22;62088;50.240;2.696;2024-01-15T00:52:32;1.60;86.50
73777;DHT22;62088;50.240;2.696;2024-01-15T00:54:59;1.60;86.50
73777;DHT22;62088;50.240;2.696;2024-01-15T00:57:26;1.60;86.50
73777;DHT22;62088;50.240;2.696;2024-01-15T00:59:54;1.50;86.50
73777;DHT22;62088;50.240;2.696;2024-01-15T01:02:21;1.50;86.50
73777;DHT22;62088;50.240;2.696;2024-01-15T01:04:48;1.60;86.50
73777;DHT22;62088;50.240;2.696;2024-01-15T01:07:15;1.60;86.50
73777;DHT22;62088;50.240;2.696;2024-01-15T01:09:42;1.60;86.50
73777;DHT22;62088;50.240;2.696;2024-01-15T01:12:11;1.60;86.50
73777;DHT22;62088;50.240;2.696;2024-01-15T01:14:38;1.60;86.60
73777;DHT22;62088;50.240;2.696;2024-01-15T01:17:06;1.60;86.50
73777;DHT22;62088;50.240;2.696;2024-01-15T01:19:33;1.60;86.60
73777;DHT22;62088;50.240;2.696;2024-01-15T01:22:00;1.60;86.60
73777;DHT22;62088;50.240;2.696;2024-01-15T01:24:27;1.60;86.60
73777;DHT22;62088;50.240;2.696;2024-01-15T01:26:54;1.60;86.60
73777;DHT22;62088;50.240;2.696;2024-01-15T01:29:21;1.60;86.60
73777;DHT22;62088;50.240;2.696;2024-01-15T01:31:50;1.60;86.60
73777;DHT22;62088;50.240;2.696;2024-01-15T01:34:17;1.60;86.60
73777;DHT22;62088;50.240;2.696;2024-01-15T01:36:44;1.60;86.60
73777;DHT22;62088;50.240;2.696;2024-01-15T01:39:12;1.60;86.60
73777;DHT22;62088;50.240;2.696;2024-01-15T01:41:39;1.60;86.60
73777;DHT22;62088;50.240;2.696;2024-01-15T01:44:06;1.60;86.60
73777;DHT22;62088;50.240;2.696;2024-01-15T01:46:36;1.70;86.70
73777;DHT22;62088;50.240;2.696;2024-01-15T01:49:07;1.60;86.60
73777;DHT22;62088;50.240;2.696;2024-01-15T01:51:36;1.60;86.70
73777;DHT22;62088;50.240;2.696;2024-01-15T01:54:05;1.60;86.60
73777;DHT22;62088;50.240;2.696;2024-01-15T01:56:34;1.60;86.70
73777;DHT22;62088;50.240;2.696;2024-01-15T01:59:02;1.60;86.70
73777;DHT22;62088;50.240;2.696;2024-01-15T02:01:31;1.60;86.70
73777;DHT22;62088;50.240;2.696;2024-01-15T02:03:58;1.60;86.70
73777;DHT22;62088;50.240;2.696;2024-01-15T02:06:25;1.60;86.70
73777;DHT22;62088;50.240;2.696;2024-01-15T02:08:53;1.70;86.70
73777;DHT22;62088;50.240;2.696;2024-01-15T02:11:20;1.60;86.70
73777;DHT22;62088;50.240;2.696;2024-01-15T02:13:47;1.60;86.70
73777;DHT22;62088;50.240;2.696;2024-01-15T02:16:15;1.70;86.80
73777;DHT22;62088;50.240;2.696;2024-01-15T02:18:43;1.70;86.80
73777;DHT22;62088;50.240;2.696;2024-01-15T02:21:11;1.70;86.80
73777;DHT22;62088;50.240;2.696;2024-01-15T02:23:39;1.70;86.80
73777;DHT22;62088;50.240;2.696;2024-01-15T02:26:06;1.70;86.80
73777;DHT22;62088;50.240;2.696;2024-01-15T02:28:35;1.70;86.80
73777;DHT22;62088;50.240;2.696;2024-01-15T02:31:02;1.60;86.80
73777;DHT22;62088;50.240;2.696;2024-01-15T02:33:29;1.70;86.80
73777;DHT22;62088;50.240;2.696;2024-01-15T02:35:57;1.70;86.80
73777;DHT22;62088;50.240;2.696;2024-01-15T02:38:24;1.70;86.80
73777;DHT22;62088;50.240;2.696;2024-01-15T02:40:51;1.70;86.80
73777;DHT22;62088;50.240;2.696;2024-01-15T02:43:18;1.70;86.80
73777;DHT22;62088;50.240;2.696;2024-01-15T02:45:46;1.70;86.90
73777;DHT22;62088;50.240;2.696;2024-01-15T02:48:16;1.70;86.90
73777;DHT22;62088;50.240;2.696;2024-01-15T02:50:43;1.70;86.90
73777;DHT22;62088;50.240;2.696;2024-01-15T02:53:11;1.70;86.90
73777;DHT22;62088;50.240;2.696;2024-01-15T02:55:38;1.70;86.90
73777;DHT22;62088;50.240;2.696;2024-01-15T02:58:05;1.70;86.90
73777;DHT22;62088;50.240;2.696;2024-01-15T03:00:32;1.70;86.90
73777;DHT22;62088;50.240;2.696;2024-01-15T03:02:59;1.70;86.90
73777;DHT22;62088;50.240;2.696;2024-01-15T03:05:26;1.70;86.90
73777;DHT22;62088;50.240;2.696;2024-01-15T03:07:53;1.70;86.90
73777;DHT22;62088;50.240;2.696;2024-01-15T03:10:20;1.70;87.00
73777;DHT22;62088;50.240;2.696;2024-01-15T03:12:47;1.70;86.90
73777;DHT22;62088;50.240;2.696;2024-01-15T03:15:15;1.70;87.00
73777;DHT22;62088;50.240;2.696;2024-01-15T03:17:42;1.70;87.00
73777;DHT22;62088;50.240;2.696;2024-01-15T03:20:10;1.80;87.00
73777;DHT22;62088;50.240;2.696;2024-01-15T03:22:37;1.70;86.90
73777;DHT22;62088;50.240;2.696;2024-01-15T03:25:06;1.80;86.90
73777;DHT22;62088;50.240;2.696;2024-01-15T03:27:33;1.80;86.90
73777;DHT22;62088;50.240;2.696;2024-01-15T03:30:00;1.70;87.00
73777;DHT22;62088;50.240;2.696;2024-01-15T03:32:29;1.80;87.00
73777;DHT22;62088;50.240;2.696;2024-01-15T03:34:56;1.70;87.00
73777;DHT22;62088;50.240;2.696;2024-01-15T03:37:23;1.70;87.00
73777;DHT22;62088;50.240;2.696;2024-01-15T03:39:50;1.70;87.00
73777;DHT22;62088;50.240;2.696;2024-01-15T03:42:18;1.70;87.00
73777;DHT22;62088;50.240;2.696;2024-01-15T03:44:45;1.70;87.00
73777;DHT22;62088;50.240;2.696;2024-01-15T03:47:12;1.70;87.00
73777;DHT22;62088;50.240;2.696;2024-01-15T03:49:39;1.80;87.00
73777;DHT22;62088;50.240;2.696;2024-01-15T03:52:06;1.70;87.00
73777;DHT22;62088;50.240;2.696;2024-01-15T03:54:34;1.70;87.00
73777;DHT22;62088;50.240;2.696;2024-01-15T03:57:01;1.70;87.00
73777;DHT22;62088;50.240;2.696;2024-01-15T03:59:28;1.70;87.00
73777;DHT22;62088;50.240;2.696;2024-01-15T04:01:55;1.70;87.00
73777;DHT22;62088;50.240;2.696;2024-01-15T04:04:22;1.70;87.00
73777;DHT22;62088;50.240;2.696;2024-01-15T04:06:49;1.70;87.00
73777;DHT22;62088;50.240;2.696;2024-01-15T04:09:17;1.70;87.00
73777;DHT22;62088;50.240;2.696;2024-01-15T04:11:44;1.70;87.00
73777;DHT22;62088;50.240;2.696;2024-01-15T04:14:11;1.70;87.00
73777;DHT22;62088;50.240;2.696;2024-01-15T04:16:38;1.80;87.00
73777;DHT22;62088;50.240;2.696;2024-01-15T04:19:05;1.80;87.00
73777;DHT22;62088;50.240;2.696;2024-01-15T04:21:32;1.70;87.00
73777;DHT22;62088;50.240;2.696;2024-01-15T04:23:59;1.80;87.00
73777;DHT22;62088;50.240;2.696;2024-01-15T04:26:27;1.80;87.00
73777;DHT22;62088;50.240;2.696;2024-01-15T04:28:54;1.80;87.00
73777;DHT22;62088;50.240;2.696;2024-01-15T04:31:23;1.80;87.00
73777;DHT22;62088;50.240;2.696;2024-01-15T04:33:50;1.80;87.00
73777;DHT22;62088;50.240;2.696;2024-01-15T04:36:17;1.90;87.00
73777;DHT22;62088;50.240;2.696;2024-01-15T04:38:44;1.80;87.00
73777;DHT22;62088;50.240;2.696;2024-01-15T04:41:16;1.90;87.00
73777;DHT22;62088;50.240;2.696;2024-01-15T04:43:43;1.90;87.00
73777;DHT22;62088;50.240;2.696;2024-01-15T04:46:10;1.90;87.00
73777;DHT22;62088;50.240;2.696;2024-01-15T04:48:38;1.90;87.00
73777;DHT22;62088;50.240;2.696;2024-01-15T04:51:05;1.90;86.90
73777;DHT22;62088;50.240;2.696;2024-01-15T04:53:34;1.90;86.90
73777;DHT22;62088;50.240;2.696;2024-01-15T04:56:02;1.90;86.90
73777;DHT22;62088;50.240;2.696;2024-01-15T04:58:29;1.90;86.80
73777;DHT22;62088;50.240;2.696;2024-01-15T05:00:56;1.90;86.80
73777;DHT22;62088;50.240;2.696;2024-01-15T05:03:23;1.90;86.80
73777;DHT22;62088;50.240;2.696;2024-01-15T05:05:51;1.90;86.80
73777;DHT22;62088;50.240;2.696;2024-01-15T05:08:18;1.80;86.70
73777;DHT22;62088;50.240;2.696;2024-01-15T05:10:45;1.80;86.70
73777;DHT22;62088;50.240;2.696;2024-01-15T05:13:12;1.80;86.70
73777;DHT22;62088;50.240;2.696;2024-01-15T05:15:40;1.90;86.70
73777;DHT22;62088;50.240;2.696;2024-01-15T05:18:07;1.90;86.70
73777;DHT22;62088;50.240;2.696;2024-01-15T05:20:34;1.90;86.60
73777;DHT22;62088;50.240;2.696;2024-01-15T05:23:02;1.80;86.60
73777;DHT22;62088;50.240;2.696;2024-01-15T05:25:29;1.90;86.60
73777;DHT22;62088;50.240;2.696;2024-01-15T05:27:56;1.80;86.50
73777;DHT22;62088;50.240;2.696;2024-01-15T05:30:23;1.90;86.50
73777;DHT22;62088;50.240;2.696;2024-01-15T05:32:50;1.80;86.40
73777;DHT22;62088;50.240;2.696;2024-01-15T05:35:18;1.80;86.40
73777;DHT22;62088;50.240;2.696;2024-01-15T05:37:45;1.80;86.40
73777;DHT22;62088;50.240;2.696;2024-01-15T05:40:13;1.80;86.30
73777;DHT22;62088;50.240;2.696;2024-01-15T05:42:42;1.80;86.20
73777;DHT22;62088;50.240;2.696;2024-01-15T05:45:09;1.80;86.20
73777;DHT22;62088;50.240;2.696;2024-01-15T05:47:37;1.80;86.20
73777;DHT22;62088;50.240;2.696;2024-01-15T05:50:04;1.80;86.10
73777;DHT22;62088;50.240;2.696;2024-01-15T05:52:31;1.80;86.10
73777;DHT22;62088;50.240;2.696;2024-01-15T05:54:59;1.80;86.00
73777;DHT22;62088;50.240;2.696;2024-01-15T05:57:26;1.80;86.00
73777;DHT22;62088;50.240;2.696;2024-01-15T05:59:53;1.70;85.90
73777;DHT22;62088;50.240;2.696;2024-01-15T06:02:20;1.70;85.90
73777;DHT22;62088;50.240;2.696;2024-01-15T06:04:47;1.70;85.80
73777;DHT22;62088;50.240;2.696;2024-01-15T06:07:15;1.70;85.80
73777;DHT22;62088;50.240;2.696;2024-01-15T06:09:42;1.70;85.70
73777;DHT22;62088;50.240;2.696;2024-01-15T06:12:09;1.70;85.60
73777;DHT22;62088;50.240;2.696;2024-01-15T06:14:36;1.70;85.50
73777;DHT22;62088;50.240;2.696;2024-01-15T06:17:04;1.70;85.40
73777;DHT22;62088;50.240;2.696;2024-01-15T06:19:31;1.70;85.40
73777;DHT22;62088;50.240;2.696;2024-01-15T06:21:58;1.70;85.30
73777;DHT22;62088;50.240;2.696;2024-01-15T06:24:26;1.70;85.20
73777;DHT22;62088;50.240;2.696;2024-01-15T06:26:54;1.70;85.10
73777;DHT22;62088;50.240;2.696;2024-01-15T06:29:21;1.70;85.00
73777;DHT22;62088;50.240;2.696;2024-01-15T06:31:48;1.70;84.90
73777;DHT22;62088;50.240;2.696;2024-01-15T06:34:15;1.60;84.90
73777;DHT22;62088;50.240;2.696;2024-01-15T06:36:43;1.60;84.90
73777;DHT22;62088;50.240;2.696;2024-01-15T06:39:10;1.60;84.80
73777;DHT22;62088;50.240;2.696;2024-01-15T06:41:38;1.60;84.70
73777;DHT22;62088;50.240;2.696;2024-01-15T06:44:11;1.60;84.60
73777;DHT22;62088;50.240;2.696;2024-01-15T06:46:42;1.60;84.50
73777;DHT22;62088;50.240;2.696;2024-01-15T06:49:10;1.60;84.50
73777;DHT22;62088;50.240;2.696;2024-01-15T06:51:38;1.60;84.40
73777;DHT22;62088;50.240;2.696;2024-01-15T06:54:05;1.50;84.30
73777;DHT22;62088;50.240;2.696;2024-01-15T06:56:32;1.50;84.30
73777;DHT22;62088;50.240;2.696;2024-01-15T06:59:00;1.50;84.20
73777;DHT22;62088;50.240;2.696;2024-01-15T07:01:27;1.50;84.20
73777;DHT22;62088;50.240;2.696;2024-01-15T07:03:54;1.50;84.10
73777;DHT22;62088;50.240;2.696;2024-01-15T07:06:22;1.40;84.10
73777;DHT22;62088;50.240;2.696;2024-01-15T07:08:49;1.40;84.00
73777;DHT22;62088;50.240;2.696;2024-01-15T07:11:16;1.40;84.00
73777;DHT22;62088;50.240;2.696;2024-01-15T07:13:44;1.40;83.90
73777;DHT22;62088;50.240;2.696;2024-01-15T07:16:11;1.30;83.80
73777;DHT22;62088;50.240;2.696;2024-01-15T07:18:38;1.30;83.80
73777;DHT22;62088;50.240;2.696;2024-01-15T07:21:05;1.30;83.70
73777;DHT22;62088;50.240;2.696;2024-01-15T07:23:32;1.30;83.70
73777;DHT22;62088;50.240;2.696;2024-01-15T07:25:59;1.30;83.70
73777;DHT22;62088;50.240;2.696;2024-01-15T07:28:29;1.20;83.60
73777;DHT22;62088;50.240;2.696;2024-01-15T07:30:56;1.30;83.60
73777;DHT22;62088;50.240;2.696;2024-01-15T07:33:23;1.20;83.50
73777;DHT22;62088;50.240;2.696;2024-01-15T07:35:51;1.20;83.50
73777;DHT22;62088;50.240;2.696;2024-01-15T07:38:18;1.10;83.50
73777;DHT22;62088;50.240;2.696;2024-01-15T07:40:45;1.10;83.40
73777;DHT22;62088;50.240;2.696;2024-01-15T07:43:16;1.10;83.40
73777;DHT22;62088;50.240;2.696;2024-01-15T07:45:43;1.10;83.40
73777;DHT22;62088;50.240;2.696;2024-01-15T07:48:12;1.10;83.40
73777;DHT22;62088;50.240;2.696;2024-01-15T07:50:39;1.00;83.30
73777;DHT22;62088;50.240;2.696;2024-01-15T07:53:06;1.00;83.30
73777;DHT22;62088;50.240;2.696;2024-01-15T07:55:34;1.00;83.20
73777;DHT22;62088;50.240;2.696;2024-01-15T07:58:01;1.00;83.10
73777;DHT22;62088;50.240;2.696;2024-01-15T08:00:41;1.00;83.10
73777;DHT22;62088;50.240;2.696;2024-01-15T08:03:09;1.00;83.00
73777;DHT22;62088;50.240;2.696;2024-01-15T08:05:36;1.00;83.00
73777;DHT22;62088;50.240;2.696;2024-01-15T08:08:04;1.00;83.00
73777;DHT22;62088;50.240;2.696;2024-01-15T08:10:31;1.00;82.90
73777;DHT22;62088;50.240;2.696;2024-01-15T08:12:58;1.00;82.90
73777;DHT22;62088;50.240;2.696;2024-01-15T08:15:25;1.00;82.90
73777;DHT22;62088;50.240;2.696;2024-01-15T08:18:15;1.00;82.90
73777;DHT22;62088;50.240;2.696;2024-01-15T08:20:43;1.00;82.80
73777;DHT22;62088;50.240;2.696;2024-01-15T08:23:10;1.00;82.70
73777;DHT22;62088;50.240;2.696;2024-01-15T08:25:37;1.00;82.70
73777;DHT22;62088;50.240;2.696;2024-01-15T08:28:04;1.00;82.60
73777;DHT22;62088;50.240;2.696;2024-01-15T08:30:32;0.90;82.60
73777;DHT22;62088;50.240;2.696;2024-01-15T08:33:00;0.90;82.60
73777;DHT22;62088;50.240;2.696;2024-01-15T08:35:37;1.00;82.50
73777;DHT22;62088;50.240;2.696;2024-01-15T08:38:04;0.90;82.50
73777;DHT22;62088;50.240;2.696;2024-01-15T08:40:31;0.90;82.50
73777;DHT22;62088;50.240;2.696;2024-01-15T08:42:58;1.00;82.50
73777;DHT22;62088;50.240;2.696;2024-01-15T08:45:25;1.00;82.50
73777;DHT22;62088;50.240;2.696;2024-01-15T08:47:55;1.00;82.40
73777;DHT22;62088;50.240;2.696;2024-01-15T08:50:22;1.00;82.40
73777;DHT22;62088;50.240;2.696;2024-01-15T08:52:49;1.00;82.40
73777;DHT22;62088;50.240;2.696;2024-01-15T08:55:16;1.00;82.40
73777;DHT22;62088;50.240;2.696;2024-01-15T08:57:44;1.00;82.40
73777;DHT22;62088;50.240;2.696;2024-01-15T09:00:11;1.00;82.30
73777;DHT22;62088;50.240;2.696;2024-01-15T09:02:39;1.00;82.30
73777;DHT22;62088;50.240;2.696;2024-01-15T09:05:06;1.00;82.30
73777;DHT22;62088;50.240;2.696;2024-01-15T09:07:33;1.00;82.30
73777;DHT22;62088;50.240;2.696;2024-01-15T09:10:00;1.10;82.30
73777;DHT22;62088;50.240;2.696;2024-01-15T09:12:28;1.00;82.20
73777;DHT22;62088;50.240;2.696;2024-01-15T09:14:56;1.10;82.20
73777;DHT22;62088;50.240;2.696;2024-01-15T09:17:23;1.10;82.20
73777;DHT22;62088;50.240;2.696;2024-01-15T09:19:50;1.10;82.10
73777;DHT22;62088;50.240;2.696;2024-01-15T09:22:17;1.10;82.10
73777;DHT22;62088;50.240;2.696;2024-01-15T09:24:45;1.10;82.10
73777;DHT22;62088;50.240;2.696;2024-01-15T09:27:13;1.10;82.00
73777;DHT22;62088;50.240;2.696;2024-01-15T09:29:41;1.20;82.00
73777;DHT22;62088;50.240;2.696;2024-01-15T09:32:09;1.20;82.00
73777;DHT22;62088;50.240;2.696;2024-01-15T09:34:36;1.20;81.90
73777;DHT22;62088;50.240;2.696;2024-01-15T09:37:04;1.20;81.90
73777;DHT22;62088;50.240;2.696;2024-01-15T09:39:31;1.20;81.90
73777;DHT22;62088;50.240;2.696;2024-01-15T09:41:58;1.20;81.80
73777;DHT22;62088;50.240;2.696;2024-01-15T09:44:27;1.20;81.80
73777;DHT22;62088;50.240;2.696;2024-01-15T09:46:56;1.20;81.70
73777;DHT22;62088;50.240;2.696;2024-01-15T09:49:24;1.30;81.70
73777;DHT22;62088;50.240;2.696;2024-01-15T09:51:51;1.30;81.70
73777;DHT22;62088;50.240;2.696;2024-01-15T09:54:33;1.30;81.60
73777;DHT22;62088;50.240;2.696;2024-01-15T09:57:03;1.40;81.50
73777;DHT22;62088;50.240;2.696;2024-01-15T09:59:31;1.40;81.50
73777;DHT22;62088;50.240;2.696;2024-01-15T10:01:59;1.50;81.40
73777;DHT22;62088;50.240;2.696;2024-01-15T10:04:26;1.50;81.40
73777;DHT22;62088;50.240;2.696;2024-01-15T10:06:54;1.50;81.30
73777;DHT22;62088;50.240;2.696;2024-01-15T10:09:23;1.50;81.20
73777;DHT22;62088;50.240;2.696;2024-01-15T10:11:50;1.60;81.10
73777;DHT22;62088;50.240;2.696;2024-01-15T10:14:17;1.60;81.00
73777;DHT22;62088;50.240;2.696;2024-01-15T10:16:44;1.70;80.90
73777;DHT22;62088;50.240;2.696;2024-01-15T10:19:11;1.70;80.80
73777;DHT22;62088;50.240;2.696;2024-01-15T10:21:39;1.70;80.70
73777;DHT22;62088;50.240;2.696;2024-01-15T10:24:06;1.80;80.60
73777;DHT22;62088;50.240;2.696;2024-01-15T10:26:34;1.80;80.50
73777;DHT22;62088;50.240;2.696;2024-01-15T10:29:01;1.80;80.40
73777;DHT22;62088;50.240;2.696;2024-01-15T10:31:28;1.90;80.20
73777;DHT22;62088;50.240;2.696;2024-01-15T10:34:10;1.90;80.10
73777;DHT22;62088;50.240;2.696;2024-01-15T10:36:40;1.90;79.90
73777;DHT22;62088;50.240;2.696;2024-01-15T10:39:07;2.00;79.80
73777;DHT22;62088;50.240;2.696;2024-01-15T10:41:35;2.00;79.70
73777;DHT22;62088;50.240;2.696;2024-01-15T10:44:02;2.00;79.60
73777;DHT22;62088;50.240;2.696;2024-01-15T10:46:30;2.00;79.50
73777;DHT22;62088;50.240;2.696;2024-01-15T10:48:58;2.10;79.40
73777;DHT22;62088;50.240;2.696;2024-01-15T10:51:25;2.10;79.30
73777;DHT22;62088;50.240;2.696;2024-01-15T10:53:53;2.10;79.20
73777;DHT22;62088;50.240;2.696;2024-01-15T10:56:22;2.20;79.10
73777;DHT22;62088;50.240;2.696;2024-01-15T10:58:50;2.20;79.10
73777;DHT22;62088;50.240;2.696;2024-01-15T11:01:18;2.20;79.00
73777;DHT22;62088;50.240;2.696;2024-01-15T11:03:47;2.20;78.90
73777;DHT22;62088;50.240;2.696;2024-01-15T11:06:18;2.20;78.70
73777;DHT22;62088;50.240;2.696;2024-01-15T11:08:49;2.30;78.60
73777;DHT22;62088;50.240;2.696;2024-01-15T11:11:17;2.30;78.50
73777;DHT22;62088;50.240;2.696;2024-01-15T11:13:47;2.40;78.30
73777;DHT22;62088;50.240;2.696;2024-01-15T11:16:16;2.40;78.10
73777;DHT22;62088;50.240;2.696;2024-01-15T11:19:02;2.40;78.00
73777;DHT22;62088;50.240;2.696;2024-01-15T11:21:29;2.50;77.90
73777;DHT22;62088;50.240;2.696;2024-01-15T11:23:59;2.50;77.70
73777;DHT22;62088;50.240;2.696;2024-01-15T11:29:02;2.60;77.30
73777;DHT22;62088;50.240;2.696;2024-01-15T11:34:18;2.70;76.90
73777;DHT22;62088;50.240;2.696;2024-01-15T11:41:59;2.90;76.30
73777;DHT22;62088;50.240;2.696;2024-01-15T11:44:27;2.90;76.10
73777;DHT22;62088;50.240;2.696;2024-01-15T11:47:04;3.00;75.90
73777;DHT22;62088;50.240;2.696;2024-01-15T11:52:34;3.10;75.50
73777;DHT22;62088;50.240;2.696;2024-01-15T11:55:14;3.10;75.40
73777;DHT22;62088;50.240;2.696;2024-01-15T11:57:51;3.20;75.30
73777;DHT22;62088;50.240;2.696;2024-01-15T12:00:19;3.20;75.20
73777;DHT22;62088;50.240;2.696;2024-01-15T12:02:47;3.20;75.10
73777;DHT22;62088;50.240;2.696;2024-01-15T12:05:16;3.30;75.00
73777;DHT22;62088;50.240;2.696;2024-01-15T12:07:48;3.30;74.80
73777;DHT22;62088;50.240;2.696;2024-01-15T12:10:18;3.40;74.50
73777;DHT22;62088;50.240;2.696;2024-01-15T12:13:00;3.40;74.30
73777;DHT22;62088;50.240;2.696;2024-01-15T12:15:29;3.40;74.10
73777;DHT22;62088;50.240;2.696;2024-01-15T12:17:58;3.50;74.00
73777;DHT22;62088;50.240;2.696;2024-01-15T12:20:27;3.50;74.00
73777;DHT22;62088;50.240;2.696;2024-01-15T12:22:55;3.50;74.00
73777;DHT22;62088;50.240;2.696;2024-01-15T12:25:29;3.60;73.90
73777;DHT22;62088;50.240;2.696;2024-01-15T12:27:59;3.60;73.80
73777;DHT22;62088;50.240;2.696;2024-01-15T12:30:27;3.70;73.60
73777;DHT22;62088;50.240;2.696;2024-01-15T12:32:55;3.70;73.40
73777;DHT22;62088;50.240;2.696;2024-01-15T12:35:41;3.80;73.20
73777;DHT22;62088;50.240;2.696;2024-01-15T12:38:08;3.80;73.00
73777;DHT22;62088;50.240;2.696;2024-01-15T12:40:35;3.90;72.70
73777;DHT22;62088;50.240;2.696;2024-01-15T12:43:05;3.90;72.50
73777;DHT22;62088;50.240;2.696;2024-01-15T12:45:34;3.90;72.30
73777;DHT22;62088;50.240;2.696;2024-01-15T12:48:03;4.00;72.00
73777;DHT22;62088;50.240;2.696;2024-01-15T12:50:33;4.00;71.70
73777;DHT22;62088;50.240;2.696;2024-01-15T12:53:01;4.10;71.60
73777;DHT22;62088;50.240;2.696;2024-01-15T12:55:28;4.10;71.40
73777;DHT22;62088;50.240;2.696;2024-01-15T12:57:55;4.20;71.30
73777;DHT22;62088;50.240;2.696;2024-01-15T13:00:22;4.20;71.10
73777;DHT22;62088;50.240;2.696;2024-01-15T13:02:50;4.20;70.80
73777;DHT22;62088;50.240;2.696;2024-01-15T13:05:17;4.20;70.60
73777;DHT22;62088;50.240;2.696;2024-01-15T13:07:46;4.20;70.30
73777;DHT22;62088;50.240;2.696;2024-01-15T13:10:13;4.30;70.20
73777;DHT22;62088;50.240;2.696;2024-01-15T13:12:41;4.30;70.10
73777;DHT22;62088;50.240;2.696;2024-01-15T13:15:09;4.30;70.10
73777;DHT22;62088;50.240;2.696;2024-01-15T13:17:41;4.40;70.10
73777;DHT22;62088;50.240;2.696;2024-01-15T13:20:10;4.40;70.00
73777;DHT22;62088;50.240;2.696;2024-01-15T13:22:38;4.40;69.80
73777;DHT22;62088;50.240;2.696;2024-01-15T13:25:08;4.40;69.50
73777;DHT22;62088;50.240;2.696;2024-01-15T13:27:36;4.40;69.40
73777;DHT22;62088;50.240;2.696;2024-01-15T13:30:05;4.50;69.30
73777;DHT22;62088;50.240;2.696;2024-01-15T13:32:34;4.50;69.10
73777;DHT22;62088;50.240;2.696;2024-01-15T13:35:02;4.50;68.90
73777;DHT22;62088;50.240;2.696;2024-01-15T13:37:32;4.50;68.80
73777;DHT22;62088;50.240;2.696;2024-01-15T13:39:59;4.50;68.70
73777;DHT22;62088;50.240;2.696;2024-01-15T13:42:27;4.60;68.50
73777;DHT22;62088;50.240;2.696;2024-01-15T13:44:54;4.60;68.30
73777;DHT22;62088;50.240;2.696;2024-01-15T13:47:40;4.60;68.30
73777;DHT22;62088;50.240;2.696;2024-01-15T13:50:09;4.60;68.30
73777;DHT22;62088;50.240;2.696;2024-01-15T13:52:36;4.60;68.20
73777;DHT22;62088;50.240;2.696;2024-01-15T13:55:04;4.70;68.10
73777;DHT22;62088;50.240;2.696;2024-01-15T13:57:33;4.60;68.00
73777;DHT22;62088;50.240;2.696;2024-01-15T14:00:00;4.70;67.80
73777;DHT22;62088;50.240;2.696;2024-01-15T14:02:27;4.70;67.70
73777;DHT22;62088;50.240;2.696;2024-01-15T14:04:54;4.70;67.40
73777;DHT22;62088;50.240;2.696;2024-01-15T14:07:21;4.60;66.90
73777;DHT22;62088;50.240;2.696;2024-01-15T14:09:48;4.60;66.80
73777;DHT22;62088;50.240;2.696;2024-01-15T14:12:15;4.60;66.70
73777;DHT22;62088;50.240;2.696;2024-01-15T14:14:43;4.50;66.70
73777;DHT22;62088;50.240;2.696;2024-01-15T14:17:10;4.50;66.70
73777;DHT22;62088;50.240;2.696;2024-01-15T14:19:38;4.50;66.80
73777;DHT22;62088;50.240;2.696;2024-01-15T14:22:05;4.50;66.90
73777;DHT22;62088;50.240;2.696;2024-01-15T14:24:32;4.50;67.00
73777;DHT22;62088;50.240;2.696;2024-01-15T14:26:59;4.50;67.10
73777;DHT22;62088;50.240;2.696;2024-01-15T14:29:26;4.40;67.20
73777;DHT22;62088;50.240;2.696;2024-01-15T14:31:54;4.30;67.30
73777;DHT22;62088;50.240;2.696;2024-01-15T14:34:21;4.30;67.40
73777;DHT22;62088;50.240;2.696;2024-01-15T14:36:51;4.20;67.50
73777;DHT22;62088;50.240;2.696;2024-01-15T14:39:24;4.10;67.60
73777;DHT22;62088;50.240;2.696;2024-01-15T14:41:53;4.10;67.70
73777;DHT22;62088;50.240;2.696;2024-01-15T14:44:20;4.00;67.80
73777;DHT22;62088;50.240;2.696;2024-01-15T14:46:48;3.90;67.90
73777;DHT22;62088;50.240;2.696;2024-01-15T14:49:15;3.90;68.00
73777;DHT22;62088;50.240;2.696;2024-01-15T14:51:44;3.90;68.10
73777;DHT22;62088;50.240;2.696;2024-01-15T14:54:11;3.80;68.20
73777;DHT22;62088;50.240;2.696;2024-01-15T14:56:39;3.70;68.30
73777;DHT22;62088;50.240;2.696;2024-01-15T14:59:06;3.60;68.30
73777;DHT22;62088;50.240;2.696;2024-01-15T15:01:33;3.60;68.50
73777;DHT22;62088;50.240;2.696;2024-01-15T15:04:00;3.50;68.60
73777;DHT22;62088;50.240;2.696;2024-01-15T15:06:28;3.50;68.80
73777;DHT22;62088;50.240;2.696;2024-01-15T15:08:56;3.40;68.90
73777;DHT22;62088;50.240;2.696;2024-01-15T15:11:27;3.40;69.00
73777;DHT22;62088;50.240;2.696;2024-01-15T15:13:54;3.30;69.10
73777;DHT22;62088;50.240;2.696;2024-01-15T15:16:21;3.20;69.20
73777;DHT22;62088;50.240;2.696;2024-01-15T15:18:48;3.20;69.30
73777;DHT22;62088;50.240;2.696;2024-01-15T15:21:15;3.10;69.40
73777;DHT22;62088;50.240;2.696;2024-01-15T15:23:43;3.00;69.60
73777;DHT22;62088;50.240;2.696;2024-01-15T15:26:10;2.90;69.80
73777;DHT22;62088;50.240;2.696;2024-01-15T15:28:37;2.90;70.10
73777;DHT22;62088;50.240;2.696;2024-01-15T15:31:06;2.90;70.20
73777;DHT22;62088;50.240;2.696;2024-01-15T15:33:38;2.80;70.40
73777;DHT22;62088;50.240;2.696;2024-01-15T15:36:06;2.80;70.60
73777;DHT22;62088;50.240;2.696;2024-01-15T15:38:34;2.70;70.70
73777;DHT22;62088;50.240;2.696;2024-01-15T15:41:01;2.70;70.80
73777;DHT22;62088;50.240;2.696;2024-01-15T15:43:29;2.70;70.90
73777;DHT22;62088;50.240;2.696;2024-01-15T15:45:56;2.60;71.10
73777;DHT22;62088;50.240;2.696;2024-01-15T15:48:27;2.60;71.20
73777;DHT22;62088;50.240;2.696;2024-01-15T15:50:54;2.60;71.40
73777;DHT22;62088;50.240;2.696;2024-01-15T15:53:23;2.50;71.50
73777;DHT22;62088;50.240;2.696;2024-01-15T15:55:51;2.50;71.60
73777;DHT22;62088;50.240;2.696;2024-01-15T15:58:19;2.50;71.80
73777;DHT22;62088;50.240;2.696;2024-01-15T16:00:47;2.40;71.90
73777;DHT22;62088;50.240;2.696;2024-01-15T16:03:14;2.40;72.00